Bookmark and Share
Track history (hours):
 

Sanko Independence

Last reported at 2014-Apr-19 14:21 UTC. Time now 2014-Apr-19 14:38 UTC.
Position N 56°05' E 011°05'.

Length 174 m; draft 8.3 m.

Type: Ship (hazmat cat C). MMSI: 636013946.

NotesDate/timePositionNaut miles runAvg speedWind from/ knotsBaromVisibWave heightAir tempDewpointWater temp
2014-Apr-19 14:21N 56°05' E 011°05'4013.3
2014-Apr-19 11:20N 56°40' E 011°41'1113.8
2014-Apr-19 10:33N 56°50' E 011°49'1616.1
2014-Apr-19 09:33N 57°05' E 011°39'1616.0
2014-Apr-19 08:33N 57°20' E 011°28'1616.0
2014-Apr-19 07:33N 57°33' E 011°11'1616.2
2014-Apr-19 06:33N 57°44' E 010°50'1312.8
2014-Apr-19 05:34N 57°47' E 010°26'1716.6
2014-Apr-19 04:33N 57°45' E 009°55'12815.3
2014-Apr-18 20:11N 58°00' E 005°57'1015.1
2014-Apr-18 19:34N 58°06' E 005°43'1615.9
2014-Apr-18 18:33N 58°17' E 005°21'1616.4
2014-Apr-18 17:32N 58°29' E 004°59'50913.4
2014-Apr-17 03:28N 66°17' E 012°09'1111.7
2014-Apr-17 02:34N 66°16' E 012°35'1413.8
2014-Apr-17 01:33N 66°26' E 012°59'1413.1
2014-Apr-17 00:28N 66°40' E 013°08'8 0.3
2014-Apr-15 22:32N 66°47' E 013°17'1413.8
2014-Apr-15 21:32N 66°34' E 013°05'1212.2
2014-Apr-15 20:33N 66°22' E 012°58'1313.4
2014-Apr-15 19:33N 66°15' E 012°30'8 8.4
2014-Apr-15 18:33N 66°17' E 012°09'  
2014-Apr-13 12:12N 56°25' E 004°05'24913.3
2014-Apr-12 17:27N 52°20' E 002°48'1514.8
2014-Apr-12 16:27N 52°06' E 002°40'1415.7
2014-Apr-12 15:33N 51°51' E 002°39'1615.8
2014-Apr-12 14:33N 51°38' E 002°25'1616.4
2014-Apr-12 13:33N 51°24' E 002°11'1615.9
2014-Apr-12 12:33N 51°11' E 001°57'1717.4
2014-Apr-12 11:33N 50°60' E 001°36'1818.0
2014-Apr-12 10:33N 50°44' E 001°22'1716.6
2014-Apr-12 09:33N 50°32' E 001°04'1716.6
2014-Apr-12 08:33N 50°26' E 000°40'1717.0
2014-Apr-12 07:33N 50°21' E 000°15'1717.4
2014-Apr-12 06:33N 50°19' W 000°13'1817.8
2014-Apr-12 05:34N 50°19' W 000°40'1615.8
2014-Apr-12 04:33N 50°23' W 001°04'1717.0
2014-Apr-12 03:33N 50°24' W 001°31'1615.8
2014-Apr-12 02:33N 50°24' W 001°56'1514.7
2014-Apr-12 01:31N 50°24' W 002°20'  
2014-Apr-09 18:33N 38°53' W 009°55'1814.9
2014-Apr-09 17:19N 38°34' W 009°55'1215.0
2014-Apr-09 16:29N 38°22' W 009°52'1415.0
2014-Apr-09 15:33N 38°08' W 009°47'1515.1
2014-Apr-09 14:33N 37°54' W 009°42'  

Dump ship's entire track history

sailing weather and tide predictions

Sanko Independence — A8QJ9 — position and weather